sensor_id;sensor_type;location;lat;lon;timestamp;P1;durP1;ratioP1;P2;durP2;ratioP2
3541;SDS011;1785;47.388;8.538;2023-12-04T00:01:47;49.00;;;40.37;;
3541;SDS011;1785;47.388;8.538;2023-12-04T00:04:14;46.23;;;31.03;;
3541;SDS011;1785;47.388;8.538;2023-12-04T00:06:40;42.27;;;29.73;;
3541;SDS011;1785;47.388;8.538;2023-12-04T00:09:07;41.90;;;29.43;;
3541;SDS011;1785;47.388;8.538;2023-12-04T00:11:33;41.80;;;30.10;;
3541;SDS011;1785;47.388;8.538;2023-12-04T00:14:00;41.13;;;29.37;;
3541;SDS011;1785;47.388;8.538;2023-12-04T00:16:27;37.17;;;28.47;;
3541;SDS011;1785;47.388;8.538;2023-12-04T00:18:53;47.33;;;38.73;;
3541;SDS011;1785;47.388;8.538;2023-12-04T00:21:19;41.73;;;29.40;;
3541;SDS011;1785;47.388;8.538;2023-12-04T00:23:46;37.80;;;28.27;;
3541;SDS011;1785;47.388;8.538;2023-12-04T00:26:12;44.10;;;31.17;;
3541;SDS011;1785;47.388;8.538;2023-12-04T00:28:38;41.87;;;30.13;;
3541;SDS011;1785;47.388;8.538;2023-12-04T00:31:06;51.67;;;42.97;;
3541;SDS011;1785;47.388;8.538;2023-12-04T00:33:33;42.00;;;29.97;;
3541;SDS011;1785;47.388;8.538;2023-12-04T00:36:00;44.03;;;30.50;;
3541;SDS011;1785;47.388;8.538;2023-12-04T00:38:26;44.37;;;29.80;;
3541;SDS011;1785;47.388;8.538;2023-12-04T00:40:52;45.60;;;31.13;;
3541;SDS011;1785;47.388;8.538;2023-12-04T00:43:19;46.83;;;38.40;;
3541;SDS011;1785;47.388;8.538;2023-12-04T00:45:45;44.03;;;39.27;;
3541;SDS011;1785;47.388;8.538;2023-12-04T00:48:12;44.07;;;37.93;;
3541;SDS011;1785;47.388;8.538;2023-12-04T00:50:39;42.67;;;32.50;;
3541;SDS011;1785;47.388;8.538;2023-12-04T00:53:05;47.50;;;41.10;;
3541;SDS011;1785;47.388;8.538;2023-12-04T00:55:31;43.73;;;31.10;;
3541;SDS011;1785;47.388;8.538;2023-12-04T00:58:00;42.43;;;30.27;;
3541;SDS011;1785;47.388;8.538;2023-12-04T01:00:26;44.73;;;33.27;;
3541;SDS011;1785;47.388;8.538;2023-12-04T01:02:53;42.80;;;30.80;;
3541;SDS011;1785;47.388;8.538;2023-12-04T01:05:20;43.80;;;30.90;;
3541;SDS011;1785;47.388;8.538;2023-12-04T01:07:46;46.53;;;31.53;;
3541;SDS011;1785;47.388;8.538;2023-12-04T01:10:13;47.63;;;31.23;;
3541;SDS011;1785;47.388;8.538;2023-12-04T01:12:39;46.60;;;30.63;;
3541;SDS011;1785;47.388;8.538;2023-12-04T01:15:05;51.17;;;32.67;;
3541;SDS011;1785;47.388;8.538;2023-12-04T01:17:32;41.87;;;29.40;;
3541;SDS011;1785;47.388;8.538;2023-12-04T01:19:59;36.80;;;28.60;;
3541;SDS011;1785;47.388;8.538;2023-12-04T01:22:26;38.33;;;29.53;;
3541;SDS011;1785;47.388;8.538;2023-12-04T01:24:52;46.50;;;39.30;;
3541;SDS011;1785;47.388;8.538;2023-12-04T01:27:19;44.93;;;31.33;;
3541;SDS011;1785;47.388;8.538;2023-12-04T01:29:45;44.47;;;39.63;;
3541;SDS011;1785;47.388;8.538;2023-12-04T01:32:12;43.70;;;32.00;;
3541;SDS011;1785;47.388;8.538;2023-12-04T01:34:38;48.00;;;38.33;;
3541;SDS011;1785;47.388;8.538;2023-12-04T01:37:05;48.30;;;40.20;;
3541;SDS011;1785;47.388;8.538;2023-12-04T01:39:32;43.80;;;37.90;;
3541;SDS011;1785;47.388;8.538;2023-12-04T01:41:58;40.80;;;30.60;;
3541;SDS011;1785;47.388;8.538;2023-12-04T01:44:25;46.93;;;41.07;;
3541;SDS011;1785;47.388;8.538;2023-12-04T01:46:51;42.57;;;37.30;;
3541;SDS011;1785;47.388;8.538;2023-12-04T01:49:17;41.23;;;29.37;;
3541;SDS011;1785;47.388;8.538;2023-12-04T01:51:44;46.00;;;31.17;;
3541;SDS011;1785;47.388;8.538;2023-12-04T01:54:11;41.53;;;29.70;;
3541;SDS011;1785;47.388;8.538;2023-12-04T01:56:39;36.13;;;27.03;;
3541;SDS011;1785;47.388;8.538;2023-12-04T01:59:05;44.93;;;38.10;;
3541;SDS011;1785;47.388;8.538;2023-12-04T02:01:32;45.47;;;37.70;;
3541;SDS011;1785;47.388;8.538;2023-12-04T02:03:59;40.43;;;30.03;;
3541;SDS011;1785;47.388;8.538;2023-12-04T02:06:27;41.47;;;29.67;;
3541;SDS011;1785;47.388;8.538;2023-12-04T02:08:53;42.20;;;37.57;;
3541;SDS011;1785;47.388;8.538;2023-12-04T02:11:19;47.13;;;31.93;;
3541;SDS011;1785;47.388;8.538;2023-12-04T02:13:46;45.70;;;40.50;;
3541;SDS011;1785;47.388;8.538;2023-12-04T02:16:13;43.13;;;31.23;;
3541;SDS011;1785;47.388;8.538;2023-12-04T02:18:42;42.07;;;31.87;;
3541;SDS011;1785;47.388;8.538;2023-12-04T02:21:09;43.87;;;31.73;;
3541;SDS011;1785;47.388;8.538;2023-12-04T02:23:35;46.30;;;39.20;;
3541;SDS011;1785;47.388;8.538;2023-12-04T02:26:03;52.07;;;33.50;;
3541;SDS011;1785;47.388;8.538;2023-12-04T02:28:35;49.03;;;32.50;;
3541;SDS011;1785;47.388;8.538;2023-12-04T02:31:03;41.70;;;30.00;;
3541;SDS011;1785;47.388;8.538;2023-12-04T02:33:31;42.60;;;29.80;;
3541;SDS011;1785;47.388;8.538;2023-12-04T02:35:58;37.13;;;28.47;;
3541;SDS011;1785;47.388;8.538;2023-12-04T02:38:26;44.43;;;39.63;;
3541;SDS011;1785;47.388;8.538;2023-12-04T02:40:54;48.43;;;32.33;;
3541;SDS011;1785;47.388;8.538;2023-12-04T02:43:22;48.97;;;33.60;;
3541;SDS011;1785;47.388;8.538;2023-12-04T02:45:48;49.17;;;32.33;;
3541;SDS011;1785;47.388;8.538;2023-12-04T02:48:14;43.00;;;32.10;;
3541;SDS011;1785;47.388;8.538;2023-12-04T02:50:40;41.90;;;30.40;;
3541;SDS011;1785;47.388;8.538;2023-12-04T02:53:07;45.53;;;38.20;;
3541;SDS011;1785;47.388;8.538;2023-12-04T02:55:33;50.77;;;33.43;;
3541;SDS011;1785;47.388;8.538;2023-12-04T02:57:59;39.90;;;29.57;;
3541;SDS011;1785;47.388;8.538;2023-12-04T03:00:27;41.23;;;29.50;;
3541;SDS011;1785;47.388;8.538;2023-12-04T03:02:54;47.80;;;32.40;;
3541;SDS011;1785;47.388;8.538;2023-12-04T03:05:20;42.27;;;36.03;;
3541;SDS011;1785;47.388;8.538;2023-12-04T03:07:46;45.00;;;38.83;;
3541;SDS011;1785;47.388;8.538;2023-12-04T03:10:13;43.50;;;31.17;;
3541;SDS011;1785;47.388;8.538;2023-12-04T03:12:39;44.40;;;37.90;;
3541;SDS011;1785;47.388;8.538;2023-12-04T03:15:05;45.17;;;31.67;;
3541;SDS011;1785;47.388;8.538;2023-12-04T03:17:33;41.00;;;30.13;;
3541;SDS011;1785;47.388;8.538;2023-12-04T03:19:59;47.93;;;32.17;;
3541;SDS011;1785;47.388;8.538;2023-12-04T03:22:25;43.60;;;38.80;;
3541;SDS011;1785;47.388;8.538;2023-12-04T03:24:52;48.73;;;40.13;;
3541;SDS011;1785;47.388;8.538;2023-12-04T03:27:18;43.27;;;28.73;;
3541;SDS011;1785;47.388;8.538;2023-12-04T03:29:45;47.00;;;40.13;;
3541;SDS011;1785;47.388;8.538;2023-12-04T03:32:11;46.20;;;31.70;;
3541;SDS011;1785;47.388;8.538;2023-12-04T03:34:38;43.30;;;32.33;;
3541;SDS011;1785;47.388;8.538;2023-12-04T03:37:05;54.40;;;32.00;;
3541;SDS011;1785;47.388;8.538;2023-12-04T03:39:32;46.90;;;33.17;;
3541;SDS011;1785;47.388;8.538;2023-12-04T03:41:58;53.80;;;43.67;;
3541;SDS011;1785;47.388;8.538;2023-12-04T03:44:24;44.50;;;33.07;;
3541;SDS011;1785;47.388;8.538;2023-12-04T03:46:51;47.03;;;32.80;;
3541;SDS011;1785;47.388;8.538;2023-12-04T03:49:17;48.97;;;34.23;;
3541;SDS011;1785;47.388;8.538;2023-12-04T03:51:44;50.60;;;42.40;;
3541;SDS011;1785;47.388;8.538;2023-12-04T03:54:11;47.73;;;31.87;;
3541;SDS011;1785;47.388;8.538;2023-12-04T03:56:38;54.10;;;44.60;;
3541;SDS011;1785;47.388;8.538;2023-12-04T03:59:05;52.20;;;34.57;;
3541;SDS011;1785;47.388;8.538;2023-12-04T04:01:32;55.60;;;35.40;;
3541;SDS011;1785;47.388;8.538;2023-12-04T04:03:58;53.57;;;35.83;;
3541;SDS011;1785;47.388;8.538;2023-12-04T04:06:24;50.03;;;40.93;;
3541;SDS011;1785;47.388;8.538;2023-12-04T04:08:51;53.27;;;33.73;;
3541;SDS011;1785;47.388;8.538;2023-12-04T04:11:18;51.77;;;43.30;;
3541;SDS011;1785;47.388;8.538;2023-12-04T04:13:44;49.40;;;34.93;;
3541;SDS011;1785;47.388;8.538;2023-12-04T04:16:12;53.10;;;36.20;;
3541;SDS011;1785;47.388;8.538;2023-12-04T04:18:39;55.60;;;43.67;;
3541;SDS011;1785;47.388;8.538;2023-12-04T04:21:06;44.20;;;32.73;;
3541;SDS011;1785;47.388;8.538;2023-12-04T04:23:32;54.83;;;42.57;;
3541;SDS011;1785;47.388;8.538;2023-12-04T04:25:59;49.30;;;35.00;;
3541;SDS011;1785;47.388;8.538;2023-12-04T04:28:26;45.93;;;33.83;;
3541;SDS011;1785;47.388;8.538;2023-12-04T04:30:52;53.77;;;35.50;;
3541;SDS011;1785;47.388;8.538;2023-12-04T04:33:19;50.00;;;33.63;;
3541;SDS011;1785;47.388;8.538;2023-12-04T04:35:45;49.60;;;33.47;;
3541;SDS011;1785;47.388;8.538;2023-12-04T04:38:12;52.57;;;36.07;;
3541;SDS011;1785;47.388;8.538;2023-12-04T04:40:38;48.93;;;33.63;;
3541;SDS011;1785;47.388;8.538;2023-12-04T04:43:08;49.77;;;36.17;;
3541;SDS011;1785;47.388;8.538;2023-12-04T04:45:35;54.27;;;34.80;;
3541;SDS011;1785;47.388;8.538;2023-12-04T04:48:01;48.00;;;33.80;;
3541;SDS011;1785;47.388;8.538;2023-12-04T04:50:28;53.50;;;34.43;;
3541;SDS011;1785;47.388;8.538;2023-12-04T04:52:54;51.50;;;35.17;;
3541;SDS011;1785;47.388;8.538;2023-12-04T04:55:21;52.37;;;36.37;;
3541;SDS011;1785;47.388;8.538;2023-12-04T04:57:47;51.67;;;36.20;;
3541;SDS011;1785;47.388;8.538;2023-12-04T05:00:14;49.87;;;33.77;;
3541;SDS011;1785;47.388;8.538;2023-12-04T05:02:41;51.77;;;34.33;;
3541;SDS011;1785;47.388;8.538;2023-12-04T05:05:08;51.53;;;33.53;;
3541;SDS011;1785;47.388;8.538;2023-12-04T05:07:34;56.90;;;42.57;;
3541;SDS011;1785;47.388;8.538;2023-12-04T05:10:00;47.03;;;28.10;;
3541;SDS011;1785;47.388;8.538;2023-12-04T05:12:27;63.13;;;40.73;;
3541;SDS011;1785;47.388;8.538;2023-12-04T05:14:53;58.80;;;36.00;;
3541;SDS011;1785;47.388;8.538;2023-12-04T05:17:21;57.20;;;41.70;;
3541;SDS011;1785;47.388;8.538;2023-12-04T05:19:47;46.20;;;33.90;;
3541;SDS011;1785;47.388;8.538;2023-12-04T05:22:13;44.03;;;32.40;;
3541;SDS011;1785;47.388;8.538;2023-12-04T05:24:40;47.87;;;32.37;;
3541;SDS011;1785;47.388;8.538;2023-12-04T05:27:07;44.90;;;33.27;;
3541;SDS011;1785;47.388;8.538;2023-12-04T05:29:33;42.50;;;31.40;;
3541;SDS011;1785;47.388;8.538;2023-12-04T05:32:00;41.03;;;31.60;;
3541;SDS011;1785;47.388;8.538;2023-12-04T05:34:27;44.30;;;32.10;;
3541;SDS011;1785;47.388;8.538;2023-12-04T05:36:53;43.60;;;33.43;;
3541;SDS011;1785;47.388;8.538;2023-12-04T05:39:20;47.10;;;35.00;;
3541;SDS011;1785;47.388;8.538;2023-12-04T05:41:46;44.07;;;33.23;;
3541;SDS011;1785;47.388;8.538;2023-12-04T05:44:13;48.73;;;35.53;;
3541;SDS011;1785;47.388;8.538;2023-12-04T05:46:39;51.80;;;36.90;;
3541;SDS011;1785;47.388;8.538;2023-12-04T05:49:06;43.70;;;37.07;;
3541;SDS011;1785;47.388;8.538;2023-12-04T05:51:33;51.43;;;37.13;;
3541;SDS011;1785;47.388;8.538;2023-12-04T05:53:59;47.33;;;39.33;;
3541;SDS011;1785;47.388;8.538;2023-12-04T05:56:32;48.27;;;37.70;;
3541;SDS011;1785;47.388;8.538;2023-12-04T05:58:58;52.30;;;38.73;;
3541;SDS011;1785;47.388;8.538;2023-12-04T06:01:24;50.53;;;39.17;;
3541;SDS011;1785;47.388;8.538;2023-12-04T06:03:51;51.40;;;37.50;;
3541;SDS011;1785;47.388;8.538;2023-12-04T06:06:17;49.47;;;38.87;;
3541;SDS011;1785;47.388;8.538;2023-12-04T06:08:45;50.30;;;36.57;;
3541;SDS011;1785;47.388;8.538;2023-12-04T06:11:12;52.00;;;40.33;;
3541;SDS011;1785;47.388;8.538;2023-12-04T06:13:39;49.17;;;39.00;;
3541;SDS011;1785;47.388;8.538;2023-12-04T06:16:05;50.77;;;40.83;;
3541;SDS011;1785;47.388;8.538;2023-12-04T06:18:33;47.87;;;34.93;;
3541;SDS011;1785;47.388;8.538;2023-12-04T06:20:59;55.00;;;42.80;;
3541;SDS011;1785;47.388;8.538;2023-12-04T06:23:26;54.73;;;42.97;;
3541;SDS011;1785;47.388;8.538;2023-12-04T06:25:55;57.73;;;43.57;;
3541;SDS011;1785;47.388;8.538;2023-12-04T06:28:22;59.50;;;43.43;;
3541;SDS011;1785;47.388;8.538;2023-12-04T06:30:49;53.60;;;42.00;;
3541;SDS011;1785;47.388;8.538;2023-12-04T06:33:16;61.37;;;44.00;;
3541;SDS011;1785;47.388;8.538;2023-12-04T06:35:43;54.00;;;35.27;;
3541;SDS011;1785;47.388;8.538;2023-12-04T06:38:11;57.70;;;42.90;;
3541;SDS011;1785;47.388;8.538;2023-12-04T06:40:44;57.30;;;42.73;;
3541;SDS011;1785;47.388;8.538;2023-12-04T06:43:12;56.00;;;44.17;;
3541;SDS011;1785;47.388;8.538;2023-12-04T06:45:41;57.03;;;38.50;;
3541;SDS011;1785;47.388;8.538;2023-12-04T06:48:09;63.27;;;45.73;;
3541;SDS011;1785;47.388;8.538;2023-12-04T06:50:40;63.27;;;38.67;;
3541;SDS011;1785;47.388;8.538;2023-12-04T06:53:07;56.83;;;44.07;;
3541;SDS011;1785;47.388;8.538;2023-12-04T06:55:34;66.20;;;37.70;;
3541;SDS011;1785;47.388;8.538;2023-12-04T06:58:00;62.90;;;46.43;;
3541;SDS011;1785;47.388;8.538;2023-12-04T07:00:27;63.63;;;36.17;;
3541;SDS011;1785;47.388;8.538;2023-12-04T07:02:55;66.07;;;49.13;;
3541;SDS011;1785;47.388;8.538;2023-12-04T07:05:22;66.80;;;46.63;;
3541;SDS011;1785;47.388;8.538;2023-12-04T07:07:48;74.17;;;49.80;;
3541;SDS011;1785;47.388;8.538;2023-12-04T07:10:15;68.77;;;41.20;;
3541;SDS011;1785;47.388;8.538;2023-12-04T07:12:42;67.30;;;38.00;;
3541;SDS011;1785;47.388;8.538;2023-12-04T07:15:09;68.97;;;49.03;;
3541;SDS011;1785;47.388;8.538;2023-12-04T07:17:38;67.10;;;47.27;;
3541;SDS011;1785;47.388;8.538;2023-12-04T07:20:06;63.57;;;38.47;;
3541;SDS011;1785;47.388;8.538;2023-12-04T07:22:34;58.50;;;35.83;;
3541;SDS011;1785;47.388;8.538;2023-12-04T07:25:02;72.17;;;49.50;;
3541;SDS011;1785;47.388;8.538;2023-12-04T07:27:29;56.43;;;34.93;;
3541;SDS011;1785;47.388;8.538;2023-12-04T07:29:55;61.00;;;46.50;;
3541;SDS011;1785;47.388;8.538;2023-12-04T07:32:22;65.17;;;46.27;;
3541;SDS011;1785;47.388;8.538;2023-12-04T07:34:50;63.40;;;46.07;;
3541;SDS011;1785;47.388;8.538;2023-12-04T07:37:16;57.00;;;36.80;;
3541;SDS011;1785;47.388;8.538;2023-12-04T07:39:43;66.33;;;38.57;;
3541;SDS011;1785;47.388;8.538;2023-12-04T07:42:11;65.03;;;48.47;;
3541;SDS011;1785;47.388;8.538;2023-12-04T07:44:38;60.17;;;48.00;;
3541;SDS011;1785;47.388;8.538;2023-12-04T07:47:04;66.03;;;47.47;;
3541;SDS011;1785;47.388;8.538;2023-12-04T07:49:32;64.20;;;47.47;;
3541;SDS011;1785;47.388;8.538;2023-12-04T07:52:00;58.17;;;36.57;;
3541;SDS011;1785;47.388;8.538;2023-12-04T07:54:26;64.90;;;46.80;;
3541;SDS011;1785;47.388;8.538;2023-12-04T07:56:55;64.10;;;49.60;;
3541;SDS011;1785;47.388;8.538;2023-12-04T07:59:22;69.17;;;41.17;;
3541;SDS011;1785;47.388;8.538;2023-12-04T08:01:49;67.13;;;41.17;;
3541;SDS011;1785;47.388;8.538;2023-12-04T08:04:15;69.17;;;42.07;;
3541;SDS011;1785;47.388;8.538;2023-12-04T08:06:42;67.90;;;40.70;;
3541;SDS011;1785;47.388;8.538;2023-12-04T08:09:09;60.40;;;47.10;;
3541;SDS011;1785;47.388;8.538;2023-12-04T08:11:36;58.37;;;39.87;;
3541;SDS011;1785;47.388;8.538;2023-12-04T08:14:02;70.20;;;41.67;;
3541;SDS011;1785;47.388;8.538;2023-12-04T08:16:29;69.90;;;50.30;;
3541;SDS011;1785;47.388;8.538;2023-12-04T08:18:56;68.20;;;40.17;;
3541;SDS011;1785;47.388;8.538;2023-12-04T08:21:23;72.03;;;51.90;;
3541;SDS011;1785;47.388;8.538;2023-12-04T08:23:50;58.87;;;40.70;;
3541;SDS011;1785;47.388;8.538;2023-12-04T08:26:21;68.73;;;50.50;;
3541;SDS011;1785;47.388;8.538;2023-12-04T08:28:48;63.60;;;39.17;;
3541;SDS011;1785;47.388;8.538;2023-12-04T08:31:14;57.63;;;39.93;;
3541;SDS011;1785;47.388;8.538;2023-12-04T08:33:41;67.27;;;48.77;;
3541;SDS011;1785;47.388;8.538;2023-12-04T08:36:09;63.63;;;46.93;;
3541;SDS011;1785;47.388;8.538;2023-12-04T08:38:36;64.63;;;47.67;;
3541;SDS011;1785;47.388;8.538;2023-12-04T08:41:03;72.13;;;41.50;;
3541;SDS011;1785;47.388;8.538;2023-12-04T08:43:31;60.70;;;47.23;;
3541;SDS011;1785;47.388;8.538;2023-12-04T08:45:57;69.40;;;46.50;;
3541;SDS011;1785;47.388;8.538;2023-12-04T08:48:25;60.90;;;40.97;;
3541;SDS011;1785;47.388;8.538;2023-12-04T08:50:52;61.97;;;40.93;;
3541;SDS011;1785;47.388;8.538;2023-12-04T08:53:19;61.10;;;45.77;;
3541;SDS011;1785;47.388;8.538;2023-12-04T08:55:45;60.53;;;41.23;;
3541;SDS011;1785;47.388;8.538;2023-12-04T08:58:12;66.17;;;41.87;;
3541;SDS011;1785;47.388;8.538;2023-12-04T09:00:39;61.67;;;47.07;;
3541;SDS011;1785;47.388;8.538;2023-12-04T09:03:08;62.07;;;39.30;;
3541;SDS011;1785;47.388;8.538;2023-12-04T09:05:36;52.80;;;37.07;;
3541;SDS011;1785;47.388;8.538;2023-12-04T09:08:02;54.53;;;36.50;;
3541;SDS011;1785;47.388;8.538;2023-12-04T09:10:29;59.57;;;38.40;;
3541;SDS011;1785;47.388;8.538;2023-12-04T09:12:55;52.40;;;35.87;;
3541;SDS011;1785;47.388;8.538;2023-12-04T09:15:21;61.30;;;44.80;;
3541;SDS011;1785;47.388;8.538;2023-12-04T09:17:48;59.83;;;46.17;;
3541;SDS011;1785;47.388;8.538;2023-12-04T09:20:15;52.53;;;42.40;;
3541;SDS011;1785;47.388;8.538;2023-12-04T09:22:41;58.30;;;44.57;;
3541;SDS011;1785;47.388;8.538;2023-12-04T09:25:08;59.00;;;43.97;;
3541;SDS011;1785;47.388;8.538;2023-12-04T09:27:35;48.40;;;35.83;;
3541;SDS011;1785;47.388;8.538;2023-12-04T09:30:02;51.23;;;42.50;;
3541;SDS011;1785;47.388;8.538;2023-12-04T09:32:29;44.87;;;34.00;;
3541;SDS011;1785;47.388;8.538;2023-12-04T09:34:57;48.93;;;40.43;;
3541;SDS011;1785;47.388;8.538;2023-12-04T09:37:24;47.10;;;39.33;;
3541;SDS011;1785;47.388;8.538;2023-12-04T09:39:51;46.17;;;39.20;;
3541;SDS011;1785;47.388;8.538;2023-12-04T09:42:19;41.53;;;33.10;;
3541;SDS011;1785;47.388;8.538;2023-12-04T09:44:46;49.47;;;39.80;;
3541;SDS011;1785;47.388;8.538;2023-12-04T09:47:16;43.20;;;32.27;;
3541;SDS011;1785;47.388;8.538;2023-12-04T09:49:44;42.17;;;31.73;;
3541;SDS011;1785;47.388;8.538;2023-12-04T09:52:11;48.87;;;32.30;;
3541;SDS011;1785;47.388;8.538;2023-12-04T09:54:38;45.97;;;39.20;;
3541;SDS011;1785;47.388;8.538;2023-12-04T09:57:05;45.60;;;32.97;;
3541;SDS011;1785;47.388;8.538;2023-12-04T09:59:33;39.60;;;30.30;;
3541;SDS011;1785;47.388;8.538;2023-12-04T10:02:01;49.37;;;41.03;;
3541;SDS011;1785;47.388;8.538;2023-12-04T10:04:28;49.10;;;34.97;;
3541;SDS011;1785;47.388;8.538;2023-12-04T10:06:54;47.13;;;34.60;;
3541;SDS011;1785;47.388;8.538;2023-12-04T10:09:22;52.93;;;43.10;;
3541;SDS011;1785;47.388;8.538;2023-12-04T10:11:50;50.13;;;34.73;;
3541;SDS011;1785;47.388;8.538;2023-12-04T10:14:17;44.93;;;34.13;;
3541;SDS011;1785;47.388;8.538;2023-12-04T10:16:45;45.10;;;32.83;;
3541;SDS011;1785;47.388;8.538;2023-12-04T10:19:16;47.40;;;32.53;;
3541;SDS011;1785;47.388;8.538;2023-12-04T10:21:45;43.73;;;37.47;;
3541;SDS011;1785;47.388;8.538;2023-12-04T10:24:12;41.83;;;31.73;;
3541;SDS011;1785;47.388;8.538;2023-12-04T10:26:52;42.93;;;29.70;;
3541;SDS011;1785;47.388;8.538;2023-12-04T10:29:18;45.90;;;31.10;;
3541;SDS011;1785;47.388;8.538;2023-12-04T10:31:45;51.03;;;39.80;;
3541;SDS011;1785;47.388;8.538;2023-12-04T10:34:13;42.00;;;31.27;;
3541;SDS011;1785;47.388;8.538;2023-12-04T10:36:40;42.23;;;29.83;;
3541;SDS011;1785;47.388;8.538;2023-12-04T10:39:06;42.43;;;31.30;;
3541;SDS011;1785;47.388;8.538;2023-12-04T10:41:33;41.37;;;30.60;;
3541;SDS011;1785;47.388;8.538;2023-12-04T10:44:01;45.90;;;38.63;;
3541;SDS011;1785;47.388;8.538;2023-12-04T10:46:29;44.77;;;36.20;;
3541;SDS011;1785;47.388;8.538;2023-12-04T10:48:56;48.97;;;38.73;;
3541;SDS011;1785;47.388;8.538;2023-12-04T10:51:24;49.67;;;33.70;;
3541;SDS011;1785;47.388;8.538;2023-12-04T10:53:53;46.53;;;37.07;;
3541;SDS011;1785;47.388;8.538;2023-12-04T10:56:19;45.17;;;33.13;;
3541;SDS011;1785;47.388;8.538;2023-12-04T10:58:56;53.37;;;43.90;;
3541;SDS011;1785;47.388;8.538;2023-12-04T11:01:26;44.37;;;38.10;;
3541;SDS011;1785;47.388;8.538;2023-12-04T11:03:53;46.70;;;38.77;;
3541;SDS011;1785;47.388;8.538;2023-12-04T11:06:24;45.17;;;37.70;;
3541;SDS011;1785;47.388;8.538;2023-12-04T11:08:54;50.50;;;40.20;;
3541;SDS011;1785;47.388;8.538;2023-12-04T11:11:26;45.60;;;33.20;;
3541;SDS011;1785;47.388;8.538;2023-12-04T11:13:58;38.93;;;31.57;;
3541;SDS011;1785;47.388;8.538;2023-12-04T11:16:30;46.67;;;36.40;;
3541;SDS011;1785;47.388;8.538;2023-12-04T11:19:10;43.83;;;31.83;;
3541;SDS011;1785;47.388;8.538;2023-12-04T11:21:45;45.70;;;37.97;;
3541;SDS011;1785;47.388;8.538;2023-12-04T11:24:12;42.70;;;37.60;;
3541;SDS011;1785;47.388;8.538;2023-12-04T11:26:39;45.93;;;34.00;;
3541;SDS011;1785;47.388;8.538;2023-12-04T11:29:06;50.30;;;39.90;;
3541;SDS011;1785;47.388;8.538;2023-12-04T11:31:35;41.97;;;31.37;;
3541;SDS011;1785;47.388;8.538;2023-12-04T11:34:02;43.37;;;32.27;;
3541;SDS011;1785;47.388;8.538;2023-12-04T11:36:29;45.80;;;37.80;;
3541;SDS011;1785;47.388;8.538;2023-12-04T11:38:56;49.57;;;40.20;;
3541;SDS011;1785;47.388;8.538;2023-12-04T11:41:23;52.07;;;39.77;;
3541;SDS011;1785;47.388;8.538;2023-12-04T11:43:50;45.83;;;38.90;;
3541;SDS011;1785;47.388;8.538;2023-12-04T11:46:18;46.07;;;37.27;;
3541;SDS011;1785;47.388;8.538;2023-12-04T11:48:48;46.40;;;36.70;;
3541;SDS011;1785;47.388;8.538;2023-12-04T11:51:15;53.87;;;42.57;;
3541;SDS011;1785;47.388;8.538;2023-12-04T11:54:13;44.90;;;35.93;;
3541;SDS011;1785;47.388;8.538;2023-12-04T11:56:40;41.03;;;34.27;;
3541;SDS011;1785;47.388;8.538;2023-12-04T11:59:07;45.57;;;36.90;;
3541;SDS011;1785;47.388;8.538;2023-12-04T12:01:33;45.57;;;37.70;;
3541;SDS011;1785;47.388;8.538;2023-12-04T12:04:02;48.03;;;37.77;;
3541;SDS011;1785;47.388;8.538;2023-12-04T12:06:30;46.73;;;36.87;;
3541;SDS011;1785;47.388;8.538;2023-12-04T12:08:57;46.27;;;36.30;;
3541;SDS011;1785;47.388;8.538;2023-12-04T12:11:24;41.07;;;36.60;;
3541;SDS011;1785;47.388;8.538;2023-12-04T12:13:52;47.53;;;38.53;;
3541;SDS011;1785;47.388;8.538;2023-12-04T12:16:19;46.80;;;37.23;;
3541;SDS011;1785;47.388;8.538;2023-12-04T12:18:45;44.83;;;35.67;;
3541;SDS011;1785;47.388;8.538;2023-12-04T12:21:12;42.97;;;34.67;;
3541;SDS011;1785;47.388;8.538;2023-12-04T12:23:39;46.77;;;38.13;;
3541;SDS011;1785;47.388;8.538;2023-12-04T12:26:06;46.90;;;38.83;;
3541;SDS011;1785;47.388;8.538;2023-12-04T12:28:34;45.27;;;37.30;;
3541;SDS011;1785;47.388;8.538;2023-12-04T12:31:01;45.97;;;38.00;;
3541;SDS011;1785;47.388;8.538;2023-12-04T12:33:28;42.83;;;34.23;;
3541;SDS011;1785;47.388;8.538;2023-12-04T12:35:55;46.50;;;37.83;;
3541;SDS011;1785;47.388;8.538;2023-12-04T12:38:22;45.67;;;38.30;;
3541;SDS011;1785;47.388;8.538;2023-12-04T12:40:49;52.37;;;41.53;;
3541;SDS011;1785;47.388;8.538;2023-12-04T12:43:16;50.57;;;39.97;;
3541;SDS011;1785;47.388;8.538;2023-12-04T12:45:46;44.70;;;37.63;;
3541;SDS011;1785;47.388;8.538;2023-12-04T12:48:13;46.93;;;37.17;;
3541;SDS011;1785;47.388;8.538;2023-12-04T12:50:41;46.60;;;38.10;;
3541;SDS011;1785;47.388;8.538;2023-12-04T12:53:08;47.63;;;40.17;;
3541;SDS011;1785;47.388;8.538;2023-12-04T12:55:39;46.07;;;38.47;;
3541;SDS011;1785;47.388;8.538;2023-12-04T12:58:06;45.30;;;38.47;;
3541;SDS011;1785;47.388;8.538;2023-12-04T13:00:34;51.50;;;39.83;;
3541;SDS011;1785;47.388;8.538;2023-12-04T13:03:00;49.80;;;39.30;;
3541;SDS011;1785;47.388;8.538;2023-12-04T13:05:27;47.93;;;38.67;;
3541;SDS011;1785;47.388;8.538;2023-12-04T13:07:54;50.40;;;41.90;;
3541;SDS011;1785;47.388;8.538;2023-12-04T13:10:20;46.70;;;39.50;;
3541;SDS011;1785;47.388;8.538;2023-12-04T13:12:49;49.07;;;37.73;;
3541;SDS011;1785;47.388;8.538;2023-12-04T13:15:17;51.57;;;41.40;;
3541;SDS011;1785;47.388;8.538;2023-12-04T13:17:44;49.37;;;40.60;;
3541;SDS011;1785;47.388;8.538;2023-12-04T13:20:11;46.13;;;38.90;;
3541;SDS011;1785;47.388;8.538;2023-12-04T13:22:38;52.00;;;40.33;;
3541;SDS011;1785;47.388;8.538;2023-12-04T13:25:05;48.10;;;39.43;;
3541;SDS011;1785;47.388;8.538;2023-12-04T13:27:32;48.23;;;39.57;;
3541;SDS011;1785;47.388;8.538;2023-12-04T13:30:00;48.13;;;38.20;;
3541;SDS011;1785;47.388;8.538;2023-12-04T13:32:27;42.47;;;37.27;;
3541;SDS011;1785;47.388;8.538;2023-12-04T13:34:53;46.53;;;38.57;;
3541;SDS011;1785;47.388;8.538;2023-12-04T13:37:20;45.53;;;36.50;;
3541;SDS011;1785;47.388;8.538;2023-12-04T13:39:48;51.70;;;39.80;;
3541;SDS011;1785;47.388;8.538;2023-12-04T13:42:16;44.43;;;38.83;;
3541;SDS011;1785;47.388;8.538;2023-12-04T13:45:01;47.33;;;36.17;;
3541;SDS011;1785;47.388;8.538;2023-12-04T13:47:29;52.43;;;38.50;;
3541;SDS011;1785;47.388;8.538;2023-12-04T13:49:56;54.27;;;40.30;;
3541;SDS011;1785;47.388;8.538;2023-12-04T13:52:24;46.60;;;39.30;;
3541;SDS011;1785;47.388;8.538;2023-12-04T13:54:52;49.63;;;39.93;;
3541;SDS011;1785;47.388;8.538;2023-12-04T13:57:19;46.70;;;39.17;;
3541;SDS011;1785;47.388;8.538;2023-12-04T13:59:48;48.13;;;39.00;;
3541;SDS011;1785;47.388;8.538;2023-12-04T14:02:15;50.03;;;40.60;;
3541;SDS011;1785;47.388;8.538;2023-12-04T14:04:41;47.00;;;37.50;;
3541;SDS011;1785;47.388;8.538;2023-12-04T14:07:08;43.57;;;38.10;;
3541;SDS011;1785;47.388;8.538;2023-12-04T14:09:36;49.23;;;41.80;;
3541;SDS011;1785;47.388;8.538;2023-12-04T14:12:02;46.03;;;37.47;;
3541;SDS011;1785;47.388;8.538;2023-12-04T14:14:29;49.57;;;38.53;;
3541;SDS011;1785;47.388;8.538;2023-12-04T14:16:56;46.10;;;38.70;;
3541;SDS011;1785;47.388;8.538;2023-12-04T14:19:23;42.83;;;37.83;;
3541;SDS011;1785;47.388;8.538;2023-12-04T14:21:49;49.83;;;39.70;;
3541;SDS011;1785;47.388;8.538;2023-12-04T14:24:16;42.93;;;37.67;;
3541;SDS011;1785;47.388;8.538;2023-12-04T14:26:43;49.87;;;39.73;;
3541;SDS011;1785;47.388;8.538;2023-12-04T14:29:09;50.20;;;39.53;;
3541;SDS011;1785;47.388;8.538;2023-12-04T14:31:35;45.10;;;38.50;;
3541;SDS011;1785;47.388;8.538;2023-12-04T14:34:02;45.93;;;38.83;;
3541;SDS011;1785;47.388;8.538;2023-12-04T14:36:29;43.43;;;36.60;;
3541;SDS011;1785;47.388;8.538;2023-12-04T14:38:57;46.00;;;37.73;;
3541;SDS011;1785;47.388;8.538;2023-12-04T14:41:24;45.63;;;38.17;;
3541;SDS011;1785;47.388;8.538;2023-12-04T14:43:52;49.87;;;42.63;;
3541;SDS011;1785;47.388;8.538;2023-12-04T14:46:19;47.87;;;40.57;;
3541;SDS011;1785;47.388;8.538;2023-12-04T14:48:45;50.80;;;38.60;;